Time;durP1;ratioP1;P1;durP2;ratioP2;P2;SDS_P1;SDS_P2;PMS_P1;PMS_P2;Temp;Humidity;BMP_temperature;BMP_pressure;BME280_temperature;BME280_humidity;BME280_pressure;Samples;Min_cycle;Max_cycle;Signal;HPM_P1;HPM_P2
2022/03/19 00:00:35;;;;;;;19.10;11.13;;;;;;;;;;5090465;28;20058;-74
2022/03/19 00:03:01;;;;;;;16.70;11.20;;;;;;;;;;5098342;28;20115;-74
2022/03/19 00:05:27;;;;;;;19.10;10.90;;;;;;;;;;5097145;28;20024;-73
2022/03/19 00:07:53;;;;;;;17.70;11.18;;;;;;;;;;5097243;28;20027;-73
2022/03/19 00:10:21;;;;;;;19.05;11.73;;;;;;;;;;5090582;28;20056;-73
2022/03/19 00:12:48;;;;;;;20.45;12.07;;;;;;;;;;5094817;28;20036;-73
2022/03/19 00:15:16;;;;;;;15.48;10.85;;;;;;;;;;5088022;28;20028;-73
2022/03/19 00:17:42;;;;;;;17.77;11.50;;;;;;;;;;5082541;28;20031;-72
2022/03/19 00:20:09;;;;;;;17.10;11.20;;;;;;;;;;5097257;28;20027;-73
2022/03/19 00:22:36;;;;;;;14.73;11.05;;;;;;;;;;5106668;28;20051;-73
2022/03/19 00:25:02;;;;;;;22.33;11.18;;;;;;;;;;5075459;28;20036;-73
2022/03/19 00:27:28;;;;;;;17.83;11.25;;;;;;;;;;5078967;28;20019;-72
2022/03/19 00:29:54;;;;;;;18.42;11.50;;;;;;;;;;5097486;28;20067;-73
2022/03/19 00:32:20;;;;;;;19.77;11.05;;;;;;;;;;5096789;28;20583;-72
2022/03/19 00:34:46;;;;;;;14.98;11.10;;;;;;;;;;5096980;28;20023;-72
2022/03/19 00:37:12;;;;;;;18.75;11.07;;;;;;;;;;5093056;28;20027;-72
2022/03/19 00:39:38;;;;;;;19.42;11.40;;;;;;;;;;5078024;28;20052;-73
2022/03/19 00:42:04;;;;;;;16.05;10.60;;;;;;;;;;5096690;28;20488;-73
2022/03/19 00:44:30;;;;;;;13.10;10.52;;;;;;;;;;5079152;28;20016;-75
2022/03/19 00:46:56;;;;;;;16.90;10.48;;;;;;;;;;5097138;28;20089;-74
2022/03/19 00:49:22;;;;;;;17.52;10.98;;;;;;;;;;5094167;28;20016;-74
2022/03/19 00:51:48;;;;;;;18.05;11.32;;;;;;;;;;5093936;28;20043;-73
2022/03/19 00:54:15;;;;;;;14.68;10.35;;;;;;;;;;5106688;28;20020;-73
2022/03/19 00:56:42;;;;;;;14.75;10.38;;;;;;;;;;5099666;28;20095;-73
2022/03/19 00:59:08;;;;;;;18.83;10.50;;;;;;;;;;5076300;28;20497;-73
2022/03/19 01:01:35;;;;;;;15.48;10.52;;;;;;;;;;5078360;28;20023;-73
2022/03/19 01:04:01;;;;;;;15.23;10.18;;;;;;;;;;5074558;28;20067;-73
2022/03/19 01:06:27;;;;;;;16.63;10.43;;;;;;;;;;5089618;28;20081;-74
2022/03/19 01:08:53;;;;;;;14.73;10.07;;;;;;;;;;5105938;28;20118;-73
2022/03/19 01:11:23;;;;;;;14.73;10.25;;;;;;;;;;5087076;28;20078;-73
2022/03/19 01:13:52;;;;;;;14.52;10.27;;;;;;;;;;5096542;28;20080;-73
2022/03/19 01:16:19;;;;;;;15.18;10.52;;;;;;;;;;5075950;28;20024;-73
2022/03/19 01:18:51;;;;;;;15.15;9.70;;;;;;;;;;5094517;28;20023;-73
2022/03/19 01:21:18;;;;;;;14.43;9.52;;;;;;;;;;5107063;28;20028;-73
2022/03/19 01:23:44;;;;;;;15.02;9.75;;;;;;;;;;5099810;28;20079;-74
2022/03/19 01:26:10;;;;;;;17.90;11.32;;;;;;;;;;5095969;28;20638;-73
2022/03/19 01:28:36;;;;;;;14.35;10.27;;;;;;;;;;5094988;28;20098;-73
2022/03/19 01:31:02;;;;;;;19.08;10.48;;;;;;;;;;5092607;28;20031;-74
2022/03/19 01:33:29;;;;;;;16.73;10.88;;;;;;;;;;5095272;28;20093;-73
2022/03/19 01:35:55;;;;;;;15.43;10.60;;;;;;;;;;5096692;28;20103;-73
2022/03/19 01:38:21;;;;;;;14.30;9.88;;;;;;;;;;5099091;28;20028;-73
2022/03/19 01:40:47;;;;;;;15.68;10.10;;;;;;;;;;5106596;28;20365;-74
2022/03/19 01:43:13;;;;;;;16.33;9.98;;;;;;;;;;5074580;28;20044;-73
2022/03/19 01:45:39;;;;;;;16.13;10.02;;;;;;;;;;5095344;28;20499;-73
2022/03/19 01:48:05;;;;;;;14.25;9.80;;;;;;;;;;5105021;28;20024;-73
2022/03/19 01:50:31;;;;;;;14.52;10.45;;;;;;;;;;5100794;28;20067;-73
2022/03/19 01:52:57;;;;;;;17.88;10.50;;;;;;;;;;5078447;28;20032;-73
2022/03/19 01:55:24;;;;;;;14.90;10.15;;;;;;;;;;5093631;28;20024;-73
2022/03/19 01:57:51;;;;;;;16.15;10.20;;;;;;;;;;5075328;28;20036;-73
2022/03/19 02:00:21;;;;;;;14.85;10.13;;;;;;;;;;5106726;28;20023;-72
2022/03/19 02:02:48;;;;;;;14.95;10.40;;;;;;;;;;5098622;28;20382;-75
2022/03/19 02:05:15;;;;;;;13.70;10.57;;;;;;;;;;5095819;28;20020;-73
2022/03/19 02:07:42;;;;;;;15.52;10.00;;;;;;;;;;5095584;28;20030;-73
2022/03/19 02:10:09;;;;;;;15.85;10.32;;;;;;;;;;5105954;28;20024;-72
2022/03/19 02:12:35;;;;;;;17.15;10.68;;;;;;;;;;5107314;28;20038;-72
2022/03/19 02:15:01;;;;;;;13.93;10.15;;;;;;;;;;5078421;28;20070;-73
2022/03/19 02:17:27;;;;;;;16.52;10.60;;;;;;;;;;5099684;28;20060;-73
2022/03/19 02:19:54;;;;;;;16.05;9.82;;;;;;;;;;5106201;28;20936;-73
2022/03/19 02:22:21;;;;;;;13.70;9.82;;;;;;;;;;5074975;28;20115;-74
2022/03/19 02:27:32;;;;;;;13.95;9.43;;;;;;;;;;5095440;28;20097;-73
2022/03/19 02:29:58;;;;;;;13.77;9.65;;;;;;;;;;5078221;28;20040;-74
2022/03/19 02:32:25;;;;;;;15.18;9.60;;;;;;;;;;5077993;28;20035;-73
2022/03/19 02:34:52;;;;;;;14.70;9.13;;;;;;;;;;5095869;28;20169;-74
2022/03/19 02:37:18;;;;;;;15.82;9.65;;;;;;;;;;5092494;28;20095;-74
2022/03/19 02:39:44;;;;;;;13.25;9.27;;;;;;;;;;5093965;28;20430;-74
2022/03/19 02:42:10;;;;;;;13.70;9.73;;;;;;;;;;5099778;28;20024;-74
2022/03/19 02:44:36;;;;;;;17.33;9.85;;;;;;;;;;5098904;28;20384;-74
2022/03/19 02:47:04;;;;;;;13.05;9.50;;;;;;;;;;5099280;28;20036;-73
2022/03/19 02:49:30;;;;;;;21.50;10.02;;;;;;;;;;5097714;28;20725;-74
2022/03/19 02:51:56;;;;;;;14.00;9.48;;;;;;;;;;5096131;28;20400;-73
2022/03/19 02:54:23;;;;;;;14.55;9.55;;;;;;;;;;5098552;28;20024;-74
2022/03/19 02:56:49;;;;;;;13.80;9.50;;;;;;;;;;5105673;28;20047;-73
2022/03/19 02:59:19;;;;;;;14.30;9.73;;;;;;;;;;5105917;28;20026;-74
2022/03/19 03:01:46;;;;;;;13.50;9.57;;;;;;;;;;5080876;28;20106;-74
2022/03/19 03:04:12;;;;;;;15.85;10.00;;;;;;;;;;5094718;28;20031;-74
2022/03/19 03:06:40;;;;;;;13.35;9.50;;;;;;;;;;5098046;28;20032;-74
2022/03/19 03:09:06;;;;;;;;;;;;;;;;;;5097291;28;20023;-73
2022/03/19 03:11:32;;;;;;;16.90;9.55;;;;;;;;;;5088090;28;19923;-74
2022/03/19 03:13:59;;;;;;;14.10;8.90;;;;;;;;;;5098739;28;20103;-74
2022/03/19 03:16:28;;;;;;;15.65;9.13;;;;;;;;;;5095406;28;20028;-74
2022/03/19 03:18:58;;;;;;;15.35;9.52;;;;;;;;;;5096408;28;20504;-74
2022/03/19 03:21:24;;;;;;;14.40;9.98;;;;;;;;;;5080051;28;20103;-74
2022/03/19 03:23:51;;;;;;;14.98;10.68;;;;;;;;;;5098874;28;20028;-74
2022/03/19 03:26:17;;;;;;;14.68;10.25;;;;;;;;;;5098413;28;20031;-74
2022/03/19 03:28:43;;;;;;;16.35;10.23;;;;;;;;;;5098396;28;20039;-74
2022/03/19 03:31:09;;;;;;;14.02;9.65;;;;;;;;;;5075819;28;20443;-74
2022/03/19 03:33:35;;;;;;;16.45;10.05;;;;;;;;;;5109829;28;20046;-74
2022/03/19 03:36:02;;;;;;;14.65;10.52;;;;;;;;;;5080960;28;20028;-74
2022/03/19 03:38:28;;;;;;;14.20;9.57;;;;;;;;;;5098177;28;20074;-74
2022/03/19 03:40:54;;;;;;;15.18;10.25;;;;;;;;;;5098169;28;20020;-73
2022/03/19 03:43:20;;;;;;;12.70;9.85;;;;;;;;;;5095013;28;20107;-74
2022/03/19 03:45:46;;;;;;;18.40;10.18;;;;;;;;;;5095928;28;20113;-74
2022/03/19 03:48:12;;;;;;;18.83;10.82;;;;;;;;;;5098615;28;20077;-74
2022/03/19 03:50:38;;;;;;;15.05;9.82;;;;;;;;;;5098069;28;20094;-74
2022/03/19 03:53:05;;;;;;;14.75;10.27;;;;;;;;;;5097118;28;20107;-73
2022/03/19 03:55:31;;;;;;;13.48;9.25;;;;;;;;;;5096784;28;20019;-74
2022/03/19 03:57:58;;;;;;;14.18;9.55;;;;;;;;;;5076713;28;20477;-74
2022/03/19 04:00:24;;;;;;;15.82;9.35;;;;;;;;;;5078923;28;20032;-73
2022/03/19 04:02:50;;;;;;;13.75;9.85;;;;;;;;;;5097638;28;20228;-74
2022/03/19 04:05:16;;;;;;;15.75;10.45;;;;;;;;;;5097927;28;20396;-72
2022/03/19 04:07:42;;;;;;;15.25;10.82;;;;;;;;;;5097921;28;20020;-73
2022/03/19 04:10:08;;;;;;;14.88;10.02;;;;;;;;;;5088926;28;20019;-73
2022/03/19 04:12:35;;;;;;;14.82;10.30;;;;;;;;;;5096997;28;20063;-72
2022/03/19 04:15:01;;;;;;;13.32;10.10;;;;;;;;;;5105837;28;20423;-73
2022/03/19 04:17:27;;;;;;;15.25;9.80;;;;;;;;;;5102571;28;20028;-73
2022/03/19 04:19:53;;;;;;;14.63;10.70;;;;;;;;;;5077905;28;20028;-73
2022/03/19 04:22:19;;;;;;;14.15;9.68;;;;;;;;;;5108835;28;20822;-73
2022/03/19 04:24:46;;;;;;;12.68;9.50;;;;;;;;;;5094579;28;20032;-73
2022/03/19 04:27:14;;;;;;;14.13;9.73;;;;;;;;;;5107023;28;20020;-72
2022/03/19 04:29:40;;;;;;;14.40;10.33;;;;;;;;;;5100616;28;20079;-73
2022/03/19 04:32:06;;;;;;;15.73;10.13;;;;;;;;;;5097101;28;20028;-72
2022/03/19 04:34:32;;;;;;;15.25;9.88;;;;;;;;;;5096135;28;20020;-73
2022/03/19 04:36:58;;;;;;;12.77;9.50;;;;;;;;;;5093594;28;26264;-74
2022/03/19 04:39:24;;;;;;;15.02;9.98;;;;;;;;;;5096318;28;20020;-73
2022/03/19 04:41:50;;;;;;;16.40;9.88;;;;;;;;;;5096873;28;20484;-73
2022/03/19 04:44:17;;;;;;;13.88;10.13;;;;;;;;;;5097017;28;20055;-73
2022/03/19 04:46:43;;;;;;;12.65;9.70;;;;;;;;;;5096377;28;20028;-73
2022/03/19 04:49:09;;;;;;;15.05;9.98;;;;;;;;;;5092245;28;20019;-72
2022/03/19 04:51:38;;;;;;;16.05;9.82;;;;;;;;;;5108050;28;20032;-73
2022/03/19 04:54:04;;;;;;;15.90;9.43;;;;;;;;;;5105882;28;20036;-74
2022/03/19 04:56:30;;;;;;;15.10;9.25;;;;;;;;;;5100990;28;20032;-74
2022/03/19 04:58:57;;;;;;;14.35;9.88;;;;;;;;;;5096951;28;20019;-75
2022/03/19 05:01:27;;;;;;;17.13;10.32;;;;;;;;;;5094160;28;20028;-68
2022/03/19 05:03:53;;;;;;;14.05;9.40;;;;;;;;;;5093352;28;20118;-68
2022/03/19 05:06:19;;;;;;;15.88;10.80;;;;;;;;;;5095430;28;20468;-68
2022/03/19 05:08:45;;;;;;;14.40;9.85;;;;;;;;;;5102700;28;20031;-68
2022/03/19 05:11:16;;;;;;;13.45;9.73;;;;;;;;;;5103846;28;20031;-68
2022/03/19 05:13:48;;;;;;;13.95;9.68;;;;;;;;;;5096592;28;20024;-68
2022/03/19 05:16:14;;;;;;;28.55;10.95;;;;;;;;;;5074962;28;20108;-68
2022/03/19 05:18:40;;;;;;;14.90;9.82;;;;;;;;;;5094536;28;20458;-68
2022/03/19 05:21:07;;;;;;;15.02;9.73;;;;;;;;;;5073624;28;20052;-68
2022/03/19 05:23:36;;;;;;;16.80;9.85;;;;;;;;;;5096408;28;20065;-68
2022/03/19 05:26:03;;;;;;;13.80;10.18;;;;;;;;;;5090710;28;20031;-68
2022/03/19 05:28:29;;;;;;;17.70;10.10;;;;;;;;;;5091280;28;20026;-68
2022/03/19 05:30:57;;;;;;;14.48;9.65;;;;;;;;;;5109275;28;20020;-69
2022/03/19 05:34:29;;;;;;;16.83;10.65;;;;;;;;;;5111248;28;20129;-68
2022/03/19 05:36:10;;;;;;;18.52;10.52;;;;;;;;;;5109789;28;20034;-68
2022/03/19 05:38:36;;;;;;;15.13;10.25;;;;;;;;;;5108398;28;20028;-68
2022/03/19 05:41:02;;;;;;;15.57;10.40;;;;;;;;;;5104895;28;20835;-68
2022/03/19 05:43:28;;;;;;;16.38;10.80;;;;;;;;;;5093846;28;20028;-68
2022/03/19 05:45:55;;;;;;;16.88;10.90;;;;;;;;;;5075268;28;20123;-68
2022/03/19 05:48:21;;;;;;;16.77;10.88;;;;;;;;;;5095502;28;20497;-68
2022/03/19 05:50:47;;;;;;;20.25;11.38;;;;;;;;;;5095939;28;20034;-69
2022/03/19 05:53:13;;;;;;;14.50;11.15;;;;;;;;;;5094981;28;20104;-66
2022/03/19 05:55:39;;;;;;;17.63;10.90;;;;;;;;;;5078002;28;20019;-66
2022/03/19 05:58:05;;;;;;;14.02;10.00;;;;;;;;;;5091364;28;20060;-66
2022/03/19 06:00:31;;;;;;;18.58;10.52;;;;;;;;;;5095292;28;20457;-66
2022/03/19 06:02:57;;;;;;;14.32;10.18;;;;;;;;;;5107940;28;20027;-66
2022/03/19 06:05:23;;;;;;;14.60;10.23;;;;;;;;;;5104859;28;20477;-68
2022/03/19 06:07:49;;;;;;;14.70;11.20;;;;;;;;;;5105666;28;20066;-68
2022/03/19 06:10:15;;;;;;;17.33;10.68;;;;;;;;;;5108428;28;20028;-68
2022/03/19 06:12:43;;;;;;;15.55;10.65;;;;;;;;;;5092182;28;20408;-69
2022/03/19 06:15:09;;;;;;;16.00;10.20;;;;;;;;;;5109654;28;20057;-69
2022/03/19 06:17:35;;;;;;;16.35;10.48;;;;;;;;;;5093394;28;20623;-69
2022/03/19 06:20:01;;;;;;;13.27;9.57;;;;;;;;;;5111983;28;20032;-69
2022/03/19 06:22:27;;;;;;;15.25;10.38;;;;;;;;;;5113881;28;20042;-68
2022/03/19 06:24:53;;;;;;;17.02;10.32;;;;;;;;;;5095157;28;20104;-69
2022/03/19 06:27:19;;;;;;;14.95;10.63;;;;;;;;;;5112282;28;20085;-69
2022/03/19 06:29:45;;;;;;;14.45;10.57;;;;;;;;;;5112379;28;20496;-68
2022/03/19 06:32:11;;;;;;;14.32;10.40;;;;;;;;;;5092620;28;20040;-69
2022/03/19 06:34:37;;;;;;;14.75;10.20;;;;;;;;;;5093119;28;20026;-69
2022/03/19 06:37:22;;;;;;;14.98;10.45;;;;;;;;;;5089221;28;20028;-70
2022/03/19 06:39:50;;;;;;;15.45;10.43;;;;;;;;;;5110424;28;20024;-70
2022/03/19 06:42:16;;;;;;;15.35;10.18;;;;;;;;;;5111916;28;20513;-70
2022/03/19 06:44:42;;;;;;;15.77;10.35;;;;;;;;;;5110364;28;20047;-70
2022/03/19 06:47:08;;;;;;;14.27;11.18;;;;;;;;;;5111076;28;20027;-70
2022/03/19 06:49:34;;;;;;;14.15;10.77;;;;;;;;;;5110486;28;20390;-69
2022/03/19 06:52:00;;;;;;;15.73;10.65;;;;;;;;;;5093832;28;20047;-70
2022/03/19 06:54:26;;;;;;;14.95;10.15;;;;;;;;;;5113510;28;20038;-69
2022/03/19 06:56:52;;;;;;;11.90;9.05;;;;;;;;;;5109911;28;20027;-69
2022/03/19 06:59:18;;;;;;;14.95;10.70;;;;;;;;;;5111787;28;20031;-68
2022/03/19 07:01:44;;;;;;;14.02;9.52;;;;;;;;;;5110610;28;20042;-70
2022/03/19 07:04:10;;;;;;;13.95;9.73;;;;;;;;;;5110713;28;20028;-72
2022/03/19 07:06:36;;;;;;;14.45;9.50;;;;;;;;;;5091785;28;20034;-72
2022/03/19 07:09:02;;;;;;;13.93;9.75;;;;;;;;;;5088638;28;20103;-69
2022/03/19 07:11:30;;;;;;;15.68;9.88;;;;;;;;;;5110102;28;20023;-69
2022/03/19 07:13:56;;;;;;;14.90;10.55;;;;;;;;;;5108832;28;20422;-67
2022/03/19 07:16:22;;;;;;;14.73;11.40;;;;;;;;;;5095046;28;20030;-68
2022/03/19 07:18:48;;;;;;;17.83;11.15;;;;;;;;;;5096153;28;20020;-68
2022/03/19 07:21:15;;;;;;;15.30;10.40;;;;;;;;;;5098672;28;20020;-68
2022/03/19 07:23:42;;;;;;;14.25;10.50;;;;;;;;;;5080641;28;20069;-67
2022/03/19 07:26:08;;;;;;;14.95;11.00;;;;;;;;;;5076980;28;20031;-67
2022/03/19 07:28:34;;;;;;;14.60;10.27;;;;;;;;;;5096756;28;20028;-68
2022/03/19 07:31:00;;;;;;;13.77;10.32;;;;;;;;;;5076438;28;20031;-67
2022/03/19 07:33:27;;;;;;;17.65;10.88;;;;;;;;;;5097917;28;20068;-67
2022/03/19 07:35:53;;;;;;;15.25;10.77;;;;;;;;;;5097813;28;20020;-66
2022/03/19 07:38:19;;;;;;;18.02;12.00;;;;;;;;;;5080803;28;20538;-67
2022/03/19 07:43:31;;;;;;;19.88;11.05;;;;;;;;;;5096402;28;20038;-67
2022/03/19 07:45:57;;;;;;;16.70;11.20;;;;;;;;;;5094708;28;20020;-68
2022/03/19 07:48:23;;;;;;;17.33;11.65;;;;;;;;;;5097704;28;20032;-67
2022/03/19 07:50:49;;;;;;;15.95;11.52;;;;;;;;;;5096940;28;20051;-68
2022/03/19 07:53:15;;;;;;;15.25;11.88;;;;;;;;;;5102997;28;20046;-70
2022/03/19 07:55:41;;;;;;;14.30;9.98;;;;;;;;;;5096977;28;20049;-68
2022/03/19 07:58:07;;;;;;;14.60;10.20;;;;;;;;;;5093500;28;20019;-68
2022/03/19 08:00:33;;;;;;;13.95;10.10;;;;;;;;;;5103808;28;20081;-68
2022/03/19 08:02:59;;;;;;;16.08;9.85;;;;;;;;;;5093182;28;20027;-67
2022/03/19 08:05:25;;;;;;;15.80;9.80;;;;;;;;;;5092777;28;20065;-68
2022/03/19 08:07:51;;;;;;;15.68;9.77;;;;;;;;;;5092704;28;20031;-69
2022/03/19 08:10:18;;;;;;;14.95;9.82;;;;;;;;;;5109503;28;20039;-71
2022/03/19 08:12:45;;;;;;;15.27;9.75;;;;;;;;;;5092745;28;20512;-69
2022/03/19 08:15:11;;;;;;;17.60;10.15;;;;;;;;;;5108214;28;20023;-69
2022/03/19 08:17:38;;;;;;;14.52;9.80;;;;;;;;;;5109396;28;20024;-72
2022/03/19 08:20:06;;;;;;;17.05;10.07;;;;;;;;;;5092762;28;20511;-72
2022/03/19 08:22:32;;;;;;;15.30;10.40;;;;;;;;;;5092613;28;20112;-71
2022/03/19 08:24:59;;;;;;;14.43;9.50;;;;;;;;;;5111040;28;20016;-72
2022/03/19 08:27:26;;;;;;;15.68;9.57;;;;;;;;;;5111392;28;20044;-73
2022/03/19 08:29:52;;;;;;;16.88;9.73;;;;;;;;;;5109974;28;20130;-72
2022/03/19 08:32:18;;;;;;;15.00;9.73;;;;;;;;;;5110221;28;20116;-71
2022/03/19 08:34:45;;;;;;;16.35;10.48;;;;;;;;;;5109975;28;20015;-72
2022/03/19 08:37:11;;;;;;;14.80;9.60;;;;;;;;;;5109842;28;20424;-70
2022/03/19 08:42:22;;;;;;;15.73;9.77;;;;;;;;;;5108029;27;20507;-69
2022/03/19 08:44:48;;;;;;;14.00;10.23;;;;;;;;;;5095100;28;20032;-72
2022/03/19 08:47:14;;;;;;;18.60;10.10;;;;;;;;;;5095207;28;20032;-70
2022/03/19 08:49:40;;;;;;;14.15;9.23;;;;;;;;;;5094037;28;20396;-71
2022/03/19 08:52:07;;;;;;;14.90;9.70;;;;;;;;;;5090771;28;20043;-71
2022/03/19 08:54:33;;;;;;;16.15;10.32;;;;;;;;;;5095737;28;20024;-71
2022/03/19 08:56:59;;;;;;;14.27;10.18;;;;;;;;;;5095960;28;20032;-70
2022/03/19 08:59:26;;;;;;;14.48;8.98;;;;;;;;;;5095367;28;20465;-70
2022/03/19 09:01:53;;;;;;;14.45;9.77;;;;;;;;;;5094642;28;20055;-71
2022/03/19 09:04:19;;;;;;;14.45;9.57;;;;;;;;;;5092617;28;20396;-69
2022/03/19 09:06:45;;;;;;;15.15;10.13;;;;;;;;;;5105908;28;20046;-71
2022/03/19 09:09:14;;;;;;;13.43;9.57;;;;;;;;;;5104793;28;20024;-71
2022/03/19 09:11:40;;;;;;;12.40;9.60;;;;;;;;;;5102363;28;20089;-70
2022/03/19 09:14:07;;;;;;;15.60;9.48;;;;;;;;;;5102622;28;20065;-70
2022/03/19 09:16:33;;;;;;;16.38;9.73;;;;;;;;;;5073891;28;20046;-70
2022/03/19 09:18:59;;;;;;;15.35;10.85;;;;;;;;;;5089804;28;20025;-72
2022/03/19 09:21:26;;;;;;;16.42;10.57;;;;;;;;;;5092459;28;20568;-72
2022/03/19 09:23:52;;;;;;;15.15;9.70;;;;;;;;;;5075599;28;20388;-71
2022/03/19 09:26:19;;;;;;;14.65;10.27;;;;;;;;;;5093676;28;20026;-70
2022/03/19 09:28:48;;;;;;;15.68;10.10;;;;;;;;;;5093720;28;20100;-70
2022/03/19 09:31:18;;;;;;;18.35;10.82;;;;;;;;;;5090058;28;20074;-70
2022/03/19 09:33:45;;;;;;;13.27;9.75;;;;;;;;;;5093190;28;20024;-71
2022/03/19 09:36:11;;;;;;;17.10;11.18;;;;;;;;;;5081100;28;20032;-71
2022/03/19 09:38:37;;;;;;;14.10;10.52;;;;;;;;;;5099488;28;20031;-73
2022/03/19 09:41:03;;;;;;;17.33;10.75;;;;;;;;;;5102690;28;20485;-74
2022/03/19 09:43:29;;;;;;;16.08;10.43;;;;;;;;;;5092249;28;20069;-73
2022/03/19 09:45:56;;;;;;;17.63;11.52;;;;;;;;;;5091904;28;20032;-73
2022/03/19 09:48:22;;;;;;;16.65;11.68;;;;;;;;;;5108263;28;20069;-73
2022/03/19 09:50:54;;;;;;;17.63;12.45;;;;;;;;;;5102140;28;20544;-73
2022/03/19 09:53:20;;;;;;;14.65;10.50;;;;;;;;;;5101213;28;20084;-69
2022/03/19 09:55:47;;;;;;;19.25;12.75;;;;;;;;;;5099724;28;20031;-71
2022/03/19 09:58:15;;;;;;;18.38;13.48;;;;;;;;;;5096237;28;20020;-70
2022/03/19 10:00:41;;;;;;;20.23;13.57;;;;;;;;;;5098981;28;20027;-71
2022/03/19 10:03:09;;;;;;;20.58;12.82;;;;;;;;;;5112155;28;20034;-69
2022/03/19 10:08:43;;;;;;;17.63;12.25;;;;;;;;;;5103978;28;20368;-68
2022/03/19 10:11:15;;;;;;;18.73;13.35;;;;;;;;;;5106724;28;20024;-71
2022/03/19 10:13:44;;;;;;;19.95;13.10;;;;;;;;;;5100121;28;20098;-73
2022/03/19 10:16:11;;;;;;;17.60;10.82;;;;;;;;;;5096011;28;20484;-70
2022/03/19 10:18:37;;;;;;;16.33;11.00;;;;;;;;;;5099284;28;20035;-70
2022/03/19 10:21:12;;;;;;;17.65;11.18;;;;;;;;;;5100255;28;20016;-72
2022/03/19 10:23:42;;;;;;;16.75;10.35;;;;;;;;;;5099061;28;20465;-74
2022/03/19 10:26:08;;;;;;;18.10;10.57;;;;;;;;;;5100671;28;20024;-70
2022/03/19 10:28:36;;;;;;;21.33;13.38;;;;;;;;;;5101740;28;20023;-72
2022/03/19 10:31:02;;;;;;;16.42;10.80;;;;;;;;;;5080353;28;20028;-72
2022/03/19 10:33:30;;;;;;;16.67;10.35;;;;;;;;;;5100577;28;20055;-71
2022/03/19 10:36:13;;;;;;;17.88;11.43;;;;;;;;;;5100369;28;20020;-71
2022/03/19 10:38:46;;;;;;;16.63;11.20;;;;;;;;;;5083651;28;20024;-71
2022/03/19 10:41:12;;;;;;;17.52;11.52;;;;;;;;;;5102063;28;20058;-71
2022/03/19 10:43:39;;;;;;;15.88;10.45;;;;;;;;;;5099108;28;20019;-71
2022/03/19 10:46:05;;;;;;;14.32;10.15;;;;;;;;;;5114198;28;20027;-71
2022/03/19 10:48:32;;;;;;;19.27;11.10;;;;;;;;;;5101844;28;20024;-72
2022/03/19 10:50:58;;;;;;;19.17;11.50;;;;;;;;;;5084080;28;20036;-71
2022/03/19 10:53:25;;;;;;;19.15;11.07;;;;;;;;;;5100520;28;20036;-72
2022/03/19 10:55:52;;;;;;;16.77;11.43;;;;;;;;;;5090984;28;20046;-71
2022/03/19 10:58:18;;;;;;;18.60;10.95;;;;;;;;;;5112154;28;20098;-72
2022/03/19 11:00:48;;;;;;;15.68;9.70;;;;;;;;;;5115414;28;20024;-71
2022/03/19 11:03:24;;;;;;;18.45;10.43;;;;;;;;;;5111667;28;20030;-71
2022/03/19 11:05:53;;;;;;;20.30;12.32;;;;;;;;;;5100702;28;20067;-73
2022/03/19 11:08:20;;;;;;;16.60;11.95;;;;;;;;;;5101609;28;20073;-72
2022/03/19 11:10:48;;;;;;;17.10;11.18;;;;;;;;;;5109392;28;20020;-72
2022/03/19 11:13:16;;;;;;;18.40;11.70;;;;;;;;;;5091617;28;20085;-69
2022/03/19 11:15:43;;;;;;;19.75;12.38;;;;;;;;;;5094241;28;20024;-71
2022/03/19 11:18:09;;;;;;;16.42;10.63;;;;;;;;;;5098040;28;20077;-69
2022/03/19 11:20:35;;;;;;;17.92;11.48;;;;;;;;;;5097973;28;20020;-70
2022/03/19 11:23:04;;;;;;;18.27;12.43;;;;;;;;;;5100745;28;20066;-70
2022/03/19 11:25:33;;;;;;;20.10;11.20;;;;;;;;;;5108262;28;20020;-71
2022/03/19 11:28:03;;;;;;;19.98;12.60;;;;;;;;;;5109546;28;20028;-72
2022/03/19 11:30:55;;;;;;;17.00;11.43;;;;;;;;;;5094459;28;20237;-73
2022/03/19 11:33:22;;;;;;;19.77;11.43;;;;;;;;;;5070596;28;20052;-72
2022/03/19 11:36:00;;;;;;;19.15;12.27;;;;;;;;;;5097953;28;20481;-73
2022/03/19 11:38:27;;;;;;;15.07;9.85;;;;;;;;;;5098056;28;20162;-73
2022/03/19 11:40:54;;;;;;;16.05;11.02;;;;;;;;;;5081098;28;20081;-73
2022/03/19 11:43:27;;;;;;;19.45;11.68;;;;;;;;;;5095720;28;20472;-72
2022/03/19 11:45:53;;;;;;;18.00;11.13;;;;;;;;;;5096315;28;20047;-73
2022/03/19 11:48:38;;;;;;;17.45;11.95;;;;;;;;;;5096912;28;20066;-73
2022/03/19 11:51:19;;;;;;;16.73;12.32;;;;;;;;;;5080580;28;20484;-73
2022/03/19 11:53:54;;;;;;;19.35;11.38;;;;;;;;;;5098193;28;20075;-72
2022/03/19 11:56:21;;;;;;;14.93;11.15;;;;;;;;;;5100654;28;20024;-73
2022/03/19 11:58:47;;;;;;;15.57;10.15;;;;;;;;;;5092050;28;20486;-73
2022/03/19 12:01:14;;;;;;;15.90;10.88;;;;;;;;;;5077074;28;20020;-73
2022/03/19 12:03:58;;;;;;;18.75;12.07;;;;;;;;;;5110004;28;20399;-73
2022/03/19 12:06:31;;;;;;;14.52;10.48;;;;;;;;;;5097002;28;20374;-72
2022/03/19 12:08:57;;;;;;;14.27;10.10;;;;;;;;;;5105912;28;20032;-73
2022/03/19 12:11:23;;;;;;;18.90;12.45;;;;;;;;;;5088657;28;20386;-73
2022/03/19 12:13:50;;;;;;;19.80;11.82;;;;;;;;;;5076086;28;20545;-73
2022/03/19 12:16:37;;;;;;;18.73;11.48;;;;;;;;;;5109125;28;20028;-73
2022/03/19 12:19:03;;;;;;;17.10;11.82;;;;;;;;;;5081657;28;20061;-73
2022/03/19 12:21:33;;;;;;;21.70;11.57;;;;;;;;;;5097720;28;20051;-73
2022/03/19 12:24:14;;;;;;;22.05;12.77;;;;;;;;;;5098025;28;20047;-73
2022/03/19 12:26:45;;;;;;;18.75;10.80;;;;;;;;;;5096961;28;20027;-73
2022/03/19 12:29:11;;;;;;;16.55;12.00;;;;;;;;;;5079359;28;20088;-73
2022/03/19 12:31:44;;;;;;;20.63;11.93;;;;;;;;;;5096773;28;20393;-73
2022/03/19 12:34:15;;;;;;;20.83;12.05;;;;;;;;;;5092332;28;20024;-72
2022/03/19 12:36:41;;;;;;;16.05;11.02;;;;;;;;;;5107808;28;20030;-74
2022/03/19 12:39:07;;;;;;;23.63;12.63;;;;;;;;;;5096301;28;20027;-74
2022/03/19 12:41:34;;;;;;;18.75;11.43;;;;;;;;;;5101503;28;20019;-74
2022/03/19 12:44:05;;;;;;;17.80;11.60;;;;;;;;;;5106495;28;20024;-74
2022/03/19 12:46:36;;;;;;;17.98;11.77;;;;;;;;;;5077509;28;20055;-74
2022/03/19 12:49:02;;;;;;;19.77;11.90;;;;;;;;;;5092964;28;20028;-74
2022/03/19 12:51:29;;;;;;;17.23;10.93;;;;;;;;;;5103502;27;20031;-69
2022/03/19 12:53:55;;;;;;;18.48;11.25;;;;;;;;;;5095390;28;20389;-69
2022/03/19 12:56:22;;;;;;;16.10;11.32;;;;;;;;;;5094596;28;20047;-68
2022/03/19 12:58:49;;;;;;;22.33;11.63;;;;;;;;;;5094195;28;20556;-69
2022/03/19 13:01:16;;;;;;;21.27;11.63;;;;;;;;;;5091457;28;20043;-67
2022/03/19 13:03:42;;;;;;;15.40;9.82;;;;;;;;;;5075653;28;20445;-69
2022/03/19 13:06:08;;;;;;;15.73;9.73;;;;;;;;;;5094552;28;20055;-70
2022/03/19 13:08:45;;;;;;;18.83;11.27;;;;;;;;;;5099125;28;20019;-70
2022/03/19 13:11:13;;;;;;;17.58;11.40;;;;;;;;;;5102565;28;20032;-71
2022/03/19 13:13:40;;;;;;;14.85;10.65;;;;;;;;;;5094973;28;20349;-69
2022/03/19 13:16:07;;;;;;;18.33;11.60;;;;;;;;;;5091047;28;20069;-70
2022/03/19 13:18:37;;;;;;;17.58;11.15;;;;;;;;;;5105929;28;20624;-73
2022/03/19 13:21:07;;;;;;;16.70;10.95;;;;;;;;;;5095177;27;20036;-74
2022/03/19 13:23:34;;;;;;;18.90;11.93;;;;;;;;;;5112822;27;20103;-74
2022/03/19 13:26:00;;;;;;;21.67;11.52;;;;;;;;;;5106379;28;20031;-74
2022/03/19 13:28:27;;;;;;;19.13;12.15;;;;;;;;;;5091331;28;20023;-74
2022/03/19 13:30:55;;;;;;;18.33;11.90;;;;;;;;;;5108913;28;20627;-74
2022/03/19 13:33:22;;;;;;;17.95;10.43;;;;;;;;;;5110946;28;20043;-73
2022/03/19 13:35:48;;;;;;;19.40;11.90;;;;;;;;;;5104671;28;20058;-74
2022/03/19 13:38:16;;;;;;;15.85;10.57;;;;;;;;;;5102038;28;20028;-73
2022/03/19 13:40:43;;;;;;;17.43;11.33;;;;;;;;;;5098712;27;20414;-74
2022/03/19 13:43:09;;;;;;;13.73;10.07;;;;;;;;;;5106691;28;20272;-75
2022/03/19 13:45:35;;;;;;;15.55;10.48;;;;;;;;;;5105712;28;20031;-74
2022/03/19 13:48:03;;;;;;;18.42;10.77;;;;;;;;;;5105196;28;20024;-75
2022/03/19 13:50:29;;;;;;;15.25;10.75;;;;;;;;;;5100616;28;20039;-74
2022/03/19 13:52:56;;;;;;;18.73;10.95;;;;;;;;;;5100856;28;20028;-74
2022/03/19 13:55:28;;;;;;;12.37;8.57;;;;;;;;;;5094091;28;20020;-74
2022/03/19 13:57:58;;;;;;;20.30;12.27;;;;;;;;;;5108866;28;20050;-74
2022/03/19 14:00:31;;;;;;;18.60;10.55;;;;;;;;;;5109343;28;20078;-75
2022/03/19 14:03:12;;;;;;;16.85;11.55;;;;;;;;;;5097349;28;20016;-75
2022/03/19 14:05:38;;;;;;;17.15;10.98;;;;;;;;;;5101271;28;20032;-74
2022/03/19 14:08:06;;;;;;;16.10;9.98;;;;;;;;;;5104522;28;20107;-73
2022/03/19 14:10:33;;;;;;;17.60;11.77;;;;;;;;;;5107068;28;20034;-74
2022/03/19 14:13:11;;;;;;;17.73;11.55;;;;;;;;;;5073791;28;20040;-72
2022/03/19 14:15:48;;;;;;;15.48;10.07;;;;;;;;;;5105327;28;20495;-73
2022/03/19 14:18:20;;;;;;;18.88;11.93;;;;;;;;;;5094662;28;20063;-71
2022/03/19 14:20:46;;;;;;;15.48;10.10;;;;;;;;;;5094040;28;20020;-71
2022/03/19 14:23:12;;;;;;;16.50;11.52;;;;;;;;;;5082442;28;20431;-69
2022/03/19 14:25:38;;;;;;;16.10;11.40;;;;;;;;;;5108817;28;20488;-74
2022/03/19 14:28:09;;;;;;;19.50;9.70;;;;;;;;;;5096859;28;20038;-74
2022/03/19 14:30:35;;;;;;;18.05;12.32;;;;;;;;;;5109612;28;20520;-75
2022/03/19 14:33:01;;;;;;;16.63;10.90;;;;;;;;;;5107629;28;20043;-75